Time;durP1;ratioP1;P1;durP2;ratioP2;P2;SDS_P1;SDS_P2;PMS_P1;PMS_P2;Temp;Humidity;BMP_temperature;BMP_pressure;BME280_temperature;BME280_humidity;BME280_pressure;Samples;Min_cycle;Max_cycle;Signal;HPM_P1;HPM_P2
2023/07/10 00:00:18;;;;;;;6.90;5.57;;;;;;;;;;4897104;29;20024;-79
2023/07/10 00:02:44;;;;;;;10.55;5.95;;;;;;;;;;4913910;29;20520;-78
2023/07/10 00:05:15;;;;;;;14.52;6.60;;;;;;;;;;4913755;29;20115;-79
2023/07/10 00:07:41;;;;;;;10.85;5.07;;;;;;;;;;4881242;29;20146;-80
2023/07/10 00:10:10;;;;;;;10.20;6.07;;;;;;;;;;4896917;29;20035;-79
2023/07/10 00:12:35;;;;;;;11.07;6.00;;;;;;;;;;4913378;29;20449;-78
2023/07/10 00:15:01;;;;;;;7.65;5.38;;;;;;;;;;4932596;29;20118;-78
2023/07/10 00:17:26;;;;;;;8.77;5.60;;;;;;;;;;4931608;29;20052;-79
2023/07/10 00:19:52;;;;;;;13.05;7.05;;;;;;;;;;4932754;29;20114;-78
2023/07/10 00:22:17;;;;;;;10.32;6.07;;;;;;;;;;4915262;29;20472;-79
2023/07/10 00:24:43;;;;;;;9.82;5.32;;;;;;;;;;4915806;29;20055;-79
2023/07/10 00:27:12;;;;;;;9.27;5.57;;;;;;;;;;4933198;29;20031;-78
2023/07/10 00:29:38;;;;;;;8.93;5.80;;;;;;;;;;4916515;29;20049;-79
2023/07/10 00:32:13;;;;;;;8.07;5.90;;;;;;;;;;4897997;29;20404;-79
2023/07/10 00:34:38;;;;;;;10.07;5.72;;;;;;;;;;4896485;29;20119;-78
2023/07/10 00:37:04;;;;;;;13.93;6.30;;;;;;;;;;4896444;29;20143;-79
2023/07/10 00:39:33;;;;;;;12.02;5.82;;;;;;;;;;4913972;29;20091;-78
2023/07/10 00:42:11;;;;;;;8.80;5.95;;;;;;;;;;4896858;29;20035;-80
2023/07/10 00:44:41;;;;;;;11.20;5.93;;;;;;;;;;4896580;29;20493;-79
2023/07/10 00:47:19;;;;;;;12.20;5.95;;;;;;;;;;4913723;29;20039;-79
2023/07/10 00:49:50;;;;;;;20.05;6.90;;;;;;;;;;4913843;29;20036;-80
2023/07/10 00:52:16;;;;;;;23.33;8.07;;;;;;;;;;4913065;29;20028;-79
2023/07/10 00:54:47;;;;;;;23.00;8.05;;;;;;;;;;4914564;29;20035;-79
2023/07/10 00:57:17;;;;;;;14.27;6.50;;;;;;;;;;4913663;29;20032;-78
2023/07/10 00:59:43;;;;;;;8.68;5.72;;;;;;;;;;4896994;29;20359;-80
2023/07/10 01:02:12;;;;;;;13.30;6.22;;;;;;;;;;4913599;29;20091;-79
2023/07/10 01:04:40;;;;;;;16.35;6.93;;;;;;;;;;4897256;29;20024;-80
2023/07/10 01:07:13;;;;;;;10.45;6.47;;;;;;;;;;4899243;29;20365;-80
2023/07/10 01:09:49;;;;;;;8.80;6.13;;;;;;;;;;4900217;29;20036;-79
2023/07/10 01:12:14;;;;;;;22.10;9.23;;;;;;;;;;4916011;29;20541;-79
2023/07/10 01:14:40;;;;;;;12.48;6.30;;;;;;;;;;4916772;29;20034;-79
2023/07/10 01:17:08;;;;;;;9.43;6.30;;;;;;;;;;4899524;29;20499;-79
2023/07/10 01:19:35;;;;;;;20.35;6.30;;;;;;;;;;4917187;29;20028;-79
2023/07/10 01:22:01;;;;;;;9.55;5.68;;;;;;;;;;4916726;29;20050;-79
2023/07/10 01:24:27;;;;;;;7.97;5.70;;;;;;;;;;4916899;29;20080;-79
2023/07/10 01:26:55;;;;;;;10.88;6.28;;;;;;;;;;4917100;29;20420;-79
2023/07/10 01:29:33;;;;;;;8.82;6.22;;;;;;;;;;4899677;29;20028;-80
2023/07/10 01:32:00;;;;;;;8.45;5.70;;;;;;;;;;4895867;29;20088;-79
2023/07/10 01:34:37;;;;;;;6.72;5.65;;;;;;;;;;4896678;29;20055;-80
2023/07/10 01:37:04;;;;;;;10.65;5.47;;;;;;;;;;4897832;29;20109;-77
2023/07/10 01:39:42;;;;;;;9.25;5.95;;;;;;;;;;4896445;29;20423;-80
2023/07/10 01:42:08;;;;;;;8.05;6.05;;;;;;;;;;4898035;29;20032;-79
2023/07/10 01:44:40;;;;;;;9.05;5.82;;;;;;;;;;4881226;29;20025;-80
2023/07/10 01:47:07;;;;;;;;;;;;;;;;;;4881223;29;20032;-79
2023/07/10 01:49:47;;;;;;;19.50;6.82;;;;;;;;;;4898380;29;19955;-79
2023/07/10 01:52:15;;;;;;;15.13;6.20;;;;;;;;;;4898328;29;20033;-79
2023/07/10 01:54:41;;;;;;;12.05;5.97;;;;;;;;;;4897588;29;20037;-78
2023/07/10 01:57:08;;;;;;;9.93;5.78;;;;;;;;;;4880233;29;20406;-78
2023/07/10 01:59:34;;;;;;;14.95;7.82;;;;;;;;;;4897016;29;20040;-79
2023/07/10 02:02:00;;;;;;;17.95;8.32;;;;;;;;;;4897285;29;20112;-78
2023/07/10 02:04:26;;;;;;;11.82;6.55;;;;;;;;;;4897667;29;20457;-79
2023/07/10 02:06:55;;;;;;;10.13;6.43;;;;;;;;;;4896031;29;20024;-79
2023/07/10 02:09:22;;;;;;;11.52;6.28;;;;;;;;;;4896916;29;20031;-80
2023/07/10 02:11:48;;;;;;;9.18;6.00;;;;;;;;;;4896796;29;20055;-78
2023/07/10 02:14:13;;;;;;;8.35;5.82;;;;;;;;;;4898626;29;20063;-80
2023/07/10 02:16:39;;;;;;;9.48;5.57;;;;;;;;;;4916177;29;20044;-79
2023/07/10 02:19:05;;;;;;;9.10;6.65;;;;;;;;;;4897867;29;20086;-78
2023/07/10 02:21:32;;;;;;;11.85;6.40;;;;;;;;;;4899068;29;20034;-78
2023/07/10 02:23:58;;;;;;;18.15;5.88;;;;;;;;;;4898799;29;20035;-77
2023/07/10 02:26:23;;;;;;;10.38;6.22;;;;;;;;;;4915894;29;20028;-79
2023/07/10 02:28:49;;;;;;;13.70;6.60;;;;;;;;;;4898258;29;20036;-79
2023/07/10 02:31:14;;;;;;;8.70;6.10;;;;;;;;;;4894055;29;20039;-79
2023/07/10 02:33:40;;;;;;;10.45;6.32;;;;;;;;;;4880007;29;20480;-78
2023/07/10 02:36:05;;;;;;;10.07;6.32;;;;;;;;;;4887714;29;20074;-79
2023/07/10 02:38:31;;;;;;;8.68;6.28;;;;;;;;;;4915222;29;20032;-80
2023/07/10 02:40:58;;;;;;;10.02;6.00;;;;;;;;;;4895213;29;20047;-79
2023/07/10 02:43:24;;;;;;;10.27;6.18;;;;;;;;;;4896198;29;20181;-80
2023/07/10 02:45:49;;;;;;;16.05;6.63;;;;;;;;;;4901909;29;20714;-78
2023/07/10 02:48:15;;;;;;;8.02;5.50;;;;;;;;;;4915713;29;20028;-79
2023/07/10 02:50:42;;;;;;;8.75;5.97;;;;;;;;;;4917839;29;20024;-80
2023/07/10 02:53:07;;;;;;;11.88;8.60;;;;;;;;;;4934063;29;20130;-78
2023/07/10 02:55:33;;;;;;;17.27;6.75;;;;;;;;;;4934071;29;20107;-78
2023/07/10 02:58:00;;;;;;;13.55;7.47;;;;;;;;;;4917141;29;20032;-79
2023/07/10 03:00:25;;;;;;;13.25;6.50;;;;;;;;;;4916948;29;20027;-79
2023/07/10 03:02:54;;;;;;;9.80;6.40;;;;;;;;;;4934047;29;20517;-79
2023/07/10 03:05:20;;;;;;;10.43;6.78;;;;;;;;;;4933905;29;20024;-78
2023/07/10 03:07:45;;;;;;;11.15;6.93;;;;;;;;;;4933725;29;20086;-79
2023/07/10 03:10:11;;;;;;;10.80;6.28;;;;;;;;;;4926665;29;20028;-79
2023/07/10 03:12:36;;;;;;;9.38;6.07;;;;;;;;;;4914788;29;20023;-79
2023/07/10 03:15:02;;;;;;;11.82;6.53;;;;;;;;;;4914406;29;20088;-79
2023/07/10 03:17:27;;;;;;;11.23;6.35;;;;;;;;;;4914829;29;20419;-79
2023/07/10 03:19:53;;;;;;;10.77;6.40;;;;;;;;;;4915027;29;20091;-79
2023/07/10 03:22:19;;;;;;;8.25;6.40;;;;;;;;;;4914389;29;20075;-79
2023/07/10 03:24:44;;;;;;;11.38;6.85;;;;;;;;;;4897605;29;20408;-79
2023/07/10 03:27:10;;;;;;;9.90;6.60;;;;;;;;;;4897580;29;20090;-79
2023/07/10 03:29:36;;;;;;;10.30;6.63;;;;;;;;;;4899504;29;20024;-80
2023/07/10 03:32:02;;;;;;;8.57;6.40;;;;;;;;;;4916262;29;20499;-79
2023/07/10 03:34:28;;;;;;;9.70;6.25;;;;;;;;;;4931944;29;20038;-80
2023/07/10 03:36:55;;;;;;;9.60;6.45;;;;;;;;;;4933485;29;20027;-80
2023/07/10 03:39:20;;;;;;;8.68;6.10;;;;;;;;;;4916119;29;20034;-79
2023/07/10 03:41:46;;;;;;;10.27;6.18;;;;;;;;;;4916353;29;20413;-74
2023/07/10 03:44:12;;;;;;;7.88;5.78;;;;;;;;;;4932978;29;20019;-80
2023/07/10 03:46:38;;;;;;;10.15;6.22;;;;;;;;;;4916041;29;20054;-78
2023/07/10 03:49:03;;;;;;;11.57;7.13;;;;;;;;;;4933528;29;20027;-79
2023/07/10 03:51:29;;;;;;;10.75;6.40;;;;;;;;;;4912047;29;20087;-78
2023/07/10 03:53:55;;;;;;;11.02;6.47;;;;;;;;;;4914456;29;20032;-79
2023/07/10 03:56:20;;;;;;;11.80;6.45;;;;;;;;;;4897160;29;20032;-79
2023/07/10 03:58:46;;;;;;;10.90;6.53;;;;;;;;;;4914419;29;20034;-79
2023/07/10 04:01:14;;;;;;;16.67;6.70;;;;;;;;;;4896836;29;20028;-79
2023/07/10 04:03:40;;;;;;;16.80;6.70;;;;;;;;;;4914113;29;20043;-79
2023/07/10 04:06:08;;;;;;;9.35;6.25;;;;;;;;;;4913958;29;20095;-80
2023/07/10 04:08:35;;;;;;;11.48;6.30;;;;;;;;;;4897310;29;20499;-79
2023/07/10 04:11:12;;;;;;;9.13;6.07;;;;;;;;;;4913612;29;20508;-78
2023/07/10 04:13:38;;;;;;;9.85;5.82;;;;;;;;;;4914240;29;20035;-80
2023/07/10 04:16:24;;;;;;;8.63;6.03;;;;;;;;;;4914037;29;20029;-80
2023/07/10 04:18:51;;;;;;;7.75;6.10;;;;;;;;;;4914087;29;20060;-79
2023/07/10 04:21:28;;;;;;;10.32;6.05;;;;;;;;;;4912493;29;20084;-79
2023/07/10 04:23:54;;;;;;;9.52;6.28;;;;;;;;;;4913922;29;20020;-80
2023/07/10 04:26:31;;;;;;;12.10;7.28;;;;;;;;;;4912569;29;20541;-79
2023/07/10 04:28:59;;;;;;;14.35;7.25;;;;;;;;;;4913898;29;20061;-79
2023/07/10 04:31:26;;;;;;;16.20;6.97;;;;;;;;;;4913537;29;20028;-79
2023/07/10 04:33:52;;;;;;;14.30;7.00;;;;;;;;;;4913964;29;21982;-78
2023/07/10 04:36:19;;;;;;;10.55;6.72;;;;;;;;;;4913770;29;20103;-79
2023/07/10 04:38:44;;;;;;;12.27;7.28;;;;;;;;;;4896912;29;20024;-80
2023/07/10 04:41:12;;;;;;;13.70;7.15;;;;;;;;;;4915399;29;20031;-80
2023/07/10 04:43:38;;;;;;;10.23;7.07;;;;;;;;;;4917798;29;20028;-80
2023/07/10 04:46:06;;;;;;;14.75;6.85;;;;;;;;;;4917382;29;20020;-79
2023/07/10 04:48:32;;;;;;;16.63;7.63;;;;;;;;;;4915992;29;20020;-80
2023/07/10 04:51:02;;;;;;;12.20;7.15;;;;;;;;;;4929572;29;20387;-79
2023/07/10 04:53:30;;;;;;;11.65;7.38;;;;;;;;;;4936203;29;20122;-79
2023/07/10 04:55:56;;;;;;;16.40;6.88;;;;;;;;;;4918834;29;20024;-79
2023/07/10 04:58:25;;;;;;;10.93;7.32;;;;;;;;;;4935837;29;20471;-78
2023/07/10 05:00:55;;;;;;;10.68;6.70;;;;;;;;;;4936559;29;20570;-79
2023/07/10 05:03:22;;;;;;;9.98;6.95;;;;;;;;;;4936748;29;20034;-79
2023/07/10 05:05:57;;;;;;;12.18;7.40;;;;;;;;;;4936284;29;20568;-79
2023/07/10 05:08:24;;;;;;;17.35;7.68;;;;;;;;;;4925790;29;20532;-78
2023/07/10 05:10:51;;;;;;;10.15;6.50;;;;;;;;;;4916892;29;20484;-78
2023/07/10 05:13:22;;;;;;;13.20;6.88;;;;;;;;;;4915627;29;20059;-79
2023/07/10 05:15:48;;;;;;;17.17;7.10;;;;;;;;;;4916847;29;20080;-78
2023/07/10 05:18:14;;;;;;;11.23;6.68;;;;;;;;;;4916623;29;20044;-80
2023/07/10 05:20:43;;;;;;;15.95;7.00;;;;;;;;;;4900666;29;20032;-80
2023/07/10 05:23:08;;;;;;;11.68;7.35;;;;;;;;;;4913107;29;20413;-79
2023/07/10 05:25:34;;;;;;;12.52;7.22;;;;;;;;;;4920233;29;20031;-81
2023/07/10 05:28:01;;;;;;;12.60;7.20;;;;;;;;;;4918828;29;20032;-82
2023/07/10 05:30:27;;;;;;;13.38;7.45;;;;;;;;;;4936105;29;20306;-81
2023/07/10 05:32:53;;;;;;;13.77;7.47;;;;;;;;;;4918137;29;20035;-81
2023/07/10 05:35:19;;;;;;;13.63;7.07;;;;;;;;;;4918257;29;20037;-83
2023/07/10 05:37:44;;;;;;;14.82;7.95;;;;;;;;;;4903848;29;20036;-81
2023/07/10 05:40:10;;;;;;;12.38;7.38;;;;;;;;;;4920478;29;20032;-82
2023/07/10 05:42:35;;;;;;;15.52;7.13;;;;;;;;;;4924077;29;20112;-79
2023/07/10 05:45:01;;;;;;;12.15;7.43;;;;;;;;;;4921440;29;20027;-80
2023/07/10 05:47:26;;;;;;;18.73;9.05;;;;;;;;;;4907743;29;20031;-81
2023/07/10 05:49:52;;;;;;;15.13;8.80;;;;;;;;;;4903922;29;20032;-80
2023/07/10 05:52:17;;;;;;;11.63;6.80;;;;;;;;;;4919691;29;20054;-81
2023/07/10 05:54:43;;;;;;;15.10;6.70;;;;;;;;;;4912985;29;20068;-80
2023/07/10 05:57:09;;;;;;;12.45;7.00;;;;;;;;;;4922218;29;20032;-81
2023/07/10 05:59:34;;;;;;;17.13;7.22;;;;;;;;;;4905808;29;20028;-79
2023/07/10 06:02:00;;;;;;;11.90;7.53;;;;;;;;;;4905594;29;20036;-79
2023/07/10 06:04:25;;;;;;;12.50;6.75;;;;;;;;;;4910487;29;20369;-81
2023/07/10 06:06:51;;;;;;;13.13;7.72;;;;;;;;;;4919640;29;20083;-80
2023/07/10 06:09:17;;;;;;;15.23;7.95;;;;;;;;;;4902135;29;20043;-83
2023/07/10 06:11:42;;;;;;;10.73;7.15;;;;;;;;;;4918686;29;20042;-80
2023/07/10 06:14:08;;;;;;;13.73;6.93;;;;;;;;;;4912459;29;20103;-79
2023/07/10 06:16:34;;;;;;;17.50;7.20;;;;;;;;;;4913984;29;20032;-79
2023/07/10 06:18:59;;;;;;;10.52;7.55;;;;;;;;;;4901203;29;20374;-83
2023/07/10 06:21:25;;;;;;;11.48;7.22;;;;;;;;;;4918408;29;20027;-77
2023/07/10 06:23:50;;;;;;;15.73;6.68;;;;;;;;;;4883937;29;20540;-79
2023/07/10 06:26:27;;;;;;;11.43;6.47;;;;;;;;;;4887468;29;20031;-84
2023/07/10 06:28:53;;;;;;;11.95;6.40;;;;;;;;;;4887605;29;20035;-79
2023/07/10 06:31:18;;;;;;;13.93;6.45;;;;;;;;;;4915461;29;20389;-81
2023/07/10 06:33:43;;;;;;;14.25;6.75;;;;;;;;;;4915154;29;20059;-81
2023/07/10 06:36:09;;;;;;;12.32;7.50;;;;;;;;;;4905474;29;20096;-81
2023/07/10 06:38:38;;;;;;;12.98;7.28;;;;;;;;;;4915331;29;20059;-81
2023/07/10 06:41:05;;;;;;;15.13;7.40;;;;;;;;;;4900369;29;20600;-77
2023/07/10 06:43:31;;;;;;;15.90;6.93;;;;;;;;;;4915847;29;20111;-77
2023/07/10 06:45:57;;;;;;;7.65;6.55;;;;;;;;;;4917353;29;20111;-78
2023/07/10 06:48:23;;;;;;;10.82;6.55;;;;;;;;;;4899572;29;20091;-80
2023/07/10 06:50:53;;;;;;;11.20;7.68;;;;;;;;;;4884130;29;20044;-83
2023/07/10 06:53:19;;;;;;;11.02;6.78;;;;;;;;;;4908667;29;20036;-83
2023/07/10 06:55:52;;;;;;;10.48;7.00;;;;;;;;;;4921990;29;20028;-82
2023/07/10 06:58:18;;;;;;;13.35;7.50;;;;;;;;;;4907275;29;20032;-86
2023/07/10 07:00:55;;;;;;;10.63;7.25;;;;;;;;;;4915197;29;20031;-86
2023/07/10 07:03:40;;;;;;;;;;;;;;;;;;;;;
2023/07/10 07:06:22;;;;;;;13.70;7.38;;;;;;;;;;4933905;29;20039;-83
2023/07/10 07:12:31;;;;;;;9.88;7.15;;;;;;;;;;4924514;29;20055;-81
2023/07/10 07:14:57;;;;;;;10.52;7.15;;;;;;;;;;4920313;29;20060;-79
2023/07/10 07:17:55;;;;;;;;;;;;;;;;;;;;;
2023/07/10 07:20:22;;;;;;;9.85;6.97;;;;;;;;;;4880231;29;20100;-79
2023/07/10 07:27:09;;;;;;;11.50;7.55;;;;;;;;;;4858800;29;20040;-78
2023/07/10 07:33:17;;;;;;;10.48;7.13;;;;;;;;;;4843654;29;20050;-81
2023/07/10 07:36:32;;;;;;;;;;;;;;;;;;;;;
2023/07/10 07:39:12;;;;;;;10.05;6.68;;;;;;;;;;4828927;29;20110;-80
2023/07/10 07:42:01;;;;;;;14.18;6.82;;;;;;;;;;4840639;29;20037;-80
2023/07/10 07:44:54;;;;;;;13.90;6.93;;;;;;;;;;4859922;29;20136;-80
2023/07/10 07:47:52;;;;;;;;;;;;;;;;;;;;;
2023/07/10 07:54:43;;;;;;;;;;;;;;;;;;;;;
2023/07/10 08:00:47;;;;;;;;;;;;;;;;;;;;;
2023/07/10 08:11:26;;;;;;;10.30;7.05;;;;;;;;;;4716093;30;20047;-79
2023/07/10 08:14:23;;;;;;;11.35;6.63;;;;;;;;;;4655468;30;20097;-80
2023/07/10 08:17:50;;;;;;;11.95;7.00;;;;;;;;;;4690976;30;20082;-77
2023/07/10 08:24:11;;;;;;;;;;;;;;;;;;;;;
2023/07/10 08:30:05;;;;;;;;;;;;;;;;;;;;;
2023/07/10 08:32:32;;;;;;;18.45;8.27;;;;;;;;;;4782608;29;20098;-78
2023/07/10 08:35:32;;;;;;;;;;;;;;;;;;;;;
2023/07/10 08:38:11;;;;;;;15.40;8.13;;;;;;;;;;4847601;29;20142;-78
2023/07/10 08:41:17;;;;;;;;;;;;;;;;;;;;;
2023/07/10 08:44:20;;;;;;;14.45;10.05;;;;;;;;;;4920267;29;20103;-78
2023/07/10 08:50:52;;;;;;;;;;;;;;;;;;;;;
2023/07/10 08:57:43;;;;;;;15.88;8.52;;;;;;;;;;4857507;29;20022;-79
2023/07/10 09:00:20;;;;;;;;;;;;;;;;;;4830562;29;20030;-79
2023/07/10 09:07:20;;;;;;;16.20;7.32;;;;;;;;;;4838220;29;20026;-78
2023/07/10 09:17:02;;;;;;;19.88;8.45;;;;;;;;;;4757204;30;20046;-78
2023/07/10 09:27:33;;;;;;;11.55;6.95;;;;;;;;;;4743580;30;20051;-76
2023/07/10 09:29:48;;;;;;;16.23;9.20;;;;;;;;;;4767113;29;20058;-78
2023/07/10 09:32:35;;;;;;;14.48;7.95;;;;;;;;;;4779081;30;20240;-78
2023/07/10 09:35:25;;;;;;;11.45;7.40;;;;;;;;;;4783099;30;20035;-76
2023/07/10 09:38:03;;;;;;;15.95;7.45;;;;;;;;;;4786732;30;20160;-76
2023/07/10 09:40:58;;;;;;;10.00;6.88;;;;;;;;;;4821976;29;20097;-77
2023/07/10 09:44:01;;;;;;;13.15;7.45;;;;;;;;;;4850406;29;20041;-77
2023/07/10 09:47:21;;;;;;;16.10;6.88;;;;;;;;;;4911077;29;20027;-76
2023/07/10 09:54:54;;;;;;;;;;;;;;;;;;;;;
2023/07/10 09:58:23;;;;;;;;;;;;;;;;;;;;;
2023/07/10 10:01:10;;;;;;;;;;;;;;;;;;;;;
2023/07/10 10:04:43;;;;;;;13.45;7.60;;;;;;;;;;4755864;30;20099;-78
2023/07/10 10:11:14;;;;;;;13.68;6.72;;;;;;;;;;4764466;30;20036;-80
2023/07/10 10:17:34;;;;;;;8.65;6.32;;;;;;;;;;4735374;30;20043;-76
2023/07/10 10:20:44;;;;;;;16.40;7.03;;;;;;;;;;4770508;29;20054;-78
2023/07/10 10:24:20;;;;;;;;;;;;;;;;;;;;;
2023/07/10 10:27:30;;;;;;;9.20;6.78;;;;;;;;;;4794949;29;20115;-79
2023/07/10 10:30:29;;;;;;;;;;;;;;;;;;;;;
2023/07/10 10:33:47;;;;;;;;;;;;;;;;;;;;;
2023/07/10 10:48:09;;;;;;;9.18;7.10;;;;;;;;;;4856790;29;20034;-79
2023/07/10 10:51:26;;;;;;;15.75;6.72;;;;;;;;;;4816410;29;20066;-79
2023/07/10 10:54:52;;;;;;;;;;;;;;;;;;;;;
2023/07/10 11:25:42;;;;;;;19.67;6.82;;;;;;;;;;4910407;23;20074;-74
2023/07/10 11:28:23;;;;;;;8.20;6.10;;;;;;;;;;4943435;29;20039;-76
2023/07/10 11:31:16;;;;;;;15.32;6.55;;;;;;;;;;4946191;29;20582;-75
2023/07/10 11:33:43;;;;;;;16.83;6.82;;;;;;;;;;4933883;29;20058;-74
2023/07/10 11:36:16;;;;;;;7.97;6.30;;;;;;;;;;4939102;29;20367;-75
2023/07/10 11:39:07;;;;;;;9.90;5.93;;;;;;;;;;4942514;29;20392;-73
2023/07/10 11:41:51;;;;;;;10.30;6.22;;;;;;;;;;4947235;29;20023;-75
2023/07/10 11:44:32;;;;;;;8.88;5.75;;;;;;;;;;4939515;29;20615;-74
2023/07/10 11:46:59;;;;;;;12.27;6.40;;;;;;;;;;4941532;29;21026;-75
2023/07/10 11:49:26;;;;;;;9.90;5.95;;;;;;;;;;4944349;29;20058;-75
2023/07/10 11:52:26;;;;;;;13.30;6.28;;;;;;;;;;4939101;29;20031;-75
2023/07/10 11:55:06;;;;;;;10.25;6.35;;;;;;;;;;4901778;29;20047;-73
2023/07/10 11:57:37;;;;;;;14.85;5.57;;;;;;;;;;4927024;29;20041;-74
2023/07/10 12:00:04;;;;;;;;;;;;;;;;;;4943186;29;20576;-76
2023/07/10 12:02:32;;;;;;;19.20;5.78;;;;;;;;;;4930454;29;20469;-80
2023/07/10 12:05:03;;;;;;;17.65;6.15;;;;;;;;;;4942994;29;20126;-76
2023/07/10 12:07:30;;;;;;;8.52;4.95;;;;;;;;;;4922861;29;20035;-78
2023/07/10 12:10:00;;;;;;;8.45;5.10;;;;;;;;;;4912218;29;20075;-78
2023/07/10 12:12:32;;;;;;;9.65;5.95;;;;;;;;;;4943148;29;20054;-76
2023/07/10 12:15:01;;;;;;;15.07;7.35;;;;;;;;;;4926507;29;20039;-77
2023/07/10 12:17:29;;;;;;;18.00;8.15;;;;;;;;;;4926491;29;20039;-78
2023/07/10 12:19:55;;;;;;;14.93;7.97;;;;;;;;;;4911690;29;20742;-76
2023/07/10 12:22:24;;;;;;;18.75;7.82;;;;;;;;;;4927011;29;20091;-80
2023/07/10 12:24:56;;;;;;;12.43;7.95;;;;;;;;;;4940634;29;20044;-77
2023/07/10 12:27:23;;;;;;;13.70;7.32;;;;;;;;;;4938005;29;20031;-78
2023/07/10 12:29:54;;;;;;;12.10;7.60;;;;;;;;;;4932023;29;20082;-76
2023/07/10 12:32:22;;;;;;;19.75;10.82;;;;;;;;;;4948686;29;20472;-79
2023/07/10 12:34:48;;;;;;;14.30;8.27;;;;;;;;;;4947690;29;20477;-79
2023/07/10 12:37:16;;;;;;;11.35;5.57;;;;;;;;;;4923218;29;20039;-77
2023/07/10 12:39:49;;;;;;;9.88;4.95;;;;;;;;;;4933742;29;20111;-78
2023/07/10 12:42:37;;;;;;;9.95;5.40;;;;;;;;;;4951111;29;20555;-78
2023/07/10 12:45:14;;;;;;;11.07;5.03;;;;;;;;;;4933491;29;20039;-77
2023/07/10 12:47:47;;;;;;;8.13;5.25;;;;;;;;;;4946021;29;20075;-77
2023/07/10 12:50:13;;;;;;;9.00;4.93;;;;;;;;;;4949782;29;20042;-78
2023/07/10 12:52:39;;;;;;;12.15;5.72;;;;;;;;;;4946237;29;20523;-76
2023/07/10 12:55:14;;;;;;;9.93;5.90;;;;;;;;;;4930017;29;20083;-77
2023/07/10 12:57:40;;;;;;;17.27;6.70;;;;;;;;;;4926496;29;20028;-77
2023/07/10 13:00:09;;;;;;;14.30;7.15;;;;;;;;;;4923878;29;20038;-77
2023/07/10 13:02:47;;;;;;;11.10;6.20;;;;;;;;;;4935072;29;20031;-77
2023/07/10 13:05:29;;;;;;;11.45;5.40;;;;;;;;;;4931314;29;20034;-76
2023/07/10 13:07:57;;;;;;;11.55;5.50;;;;;;;;;;4949132;29;20037;-77
2023/07/10 13:10:41;;;;;;;12.00;5.47;;;;;;;;;;4925260;28;20031;-77
2023/07/10 13:13:14;;;;;;;12.05;5.25;;;;;;;;;;4937110;29;20039;-76
2023/07/10 13:15:40;;;;;;;11.80;5.10;;;;;;;;;;4943009;29;20477;-77
2023/07/10 13:18:35;;;;;;;10.75;5.35;;;;;;;;;;4934672;29;20119;-76
2023/07/10 13:21:05;;;;;;;10.73;5.05;;;;;;;;;;4936592;29;20034;-77
2023/07/10 13:23:31;;;;;;;10.38;5.10;;;;;;;;;;4937182;29;20070;-77
2023/07/10 13:25:57;;;;;;;8.75;5.25;;;;;;;;;;4950123;29;20079;-75
2023/07/10 13:28:26;;;;;;;10.00;5.50;;;;;;;;;;4947490;28;20027;-76
2023/07/10 13:30:54;;;;;;;10.90;5.47;;;;;;;;;;4948859;29;20034;-77
2023/07/10 13:33:23;;;;;;;10.25;5.45;;;;;;;;;;4948554;29;20031;-78
2023/07/10 13:35:53;;;;;;;12.67;5.53;;;;;;;;;;4951069;29;20361;-77
2023/07/10 13:38:18;;;;;;;;;;;;;;;;;;4935326;28;20098;-77
2023/07/10 13:40:44;;;;;;;10.77;5.60;;;;;;;;;;4935423;29;19927;-76
2023/07/10 13:43:20;;;;;;;11.23;5.20;;;;;;;;;;4941729;29;20045;-79
2023/07/10 13:45:53;;;;;;;10.60;5.65;;;;;;;;;;4927534;29;20051;-77
2023/07/10 13:48:19;;;;;;;11.30;5.72;;;;;;;;;;4937936;29;20528;-76
2023/07/10 13:50:47;;;;;;;13.20;6.40;;;;;;;;;;4933495;29;20031;-75
2023/07/10 13:53:16;;;;;;;10.82;5.25;;;;;;;;;;4935197;29;20063;-76
2023/07/10 13:55:42;;;;;;;9.55;5.32;;;;;;;;;;4923732;29;20039;-77
2023/07/10 13:58:20;;;;;;;16.25;6.32;;;;;;;;;;4932478;29;20567;-78
2023/07/10 14:00:49;;;;;;;10.70;5.80;;;;;;;;;;4925655;29;20078;-76
2023/07/10 14:03:16;;;;;;;11.40;6.03;;;;;;;;;;4950232;29;20035;-78
2023/07/10 14:05:43;;;;;;;8.20;5.80;;;;;;;;;;4943596;28;20050;-78
2023/07/10 14:08:25;;;;;;;11.20;6.75;;;;;;;;;;4929805;29;20042;-77
2023/07/10 14:10:51;;;;;;;13.27;6.18;;;;;;;;;;4947762;29;20027;-76
2023/07/10 14:13:17;;;;;;;8.77;6.28;;;;;;;;;;4934865;29;20032;-77
2023/07/10 14:15:43;;;;;;;10.00;7.55;;;;;;;;;;4944874;29;20042;-76
2023/07/10 14:18:24;;;;;;;9.98;6.88;;;;;;;;;;4950763;28;20035;-75
2023/07/10 14:20:50;;;;;;;13.80;6.70;;;;;;;;;;4936672;29;20728;-78
2023/07/10 14:23:20;;;;;;;10.60;7.40;;;;;;;;;;4945182;29;20059;-76
2023/07/10 14:25:46;;;;;;;;;;;;;;;;;;4936872;29;20059;-76
2023/07/10 14:28:16;;;;;;;14.38;7.00;;;;;;;;;;4954606;29;20038;-77
2023/07/10 14:30:43;;;;;;;44.07;10.37;;;;;;;;;;4944844;28;20035;-76
2023/07/10 14:33:10;;;;;;;17.23;8.60;;;;;;;;;;4944767;29;20773;-77
2023/07/10 14:35:36;;;;;;;16.55;7.13;;;;;;;;;;4932589;29;20027;-77
2023/07/10 14:38:14;;;;;;;19.55;7.97;;;;;;;;;;4944984;29;20042;-77
2023/07/10 14:40:40;;;;;;;12.90;7.35;;;;;;;;;;4919040;29;20125;-76
2023/07/10 14:43:11;;;;;;;9.68;7.47;;;;;;;;;;4946243;29;20407;-76
2023/07/10 14:45:41;;;;;;;14.70;7.63;;;;;;;;;;4945088;29;20118;-77
2023/07/10 14:48:13;;;;;;;11.95;6.95;;;;;;;;;;4948181;29;20034;-77
2023/07/10 14:50:38;;;;;;;11.43;6.70;;;;;;;;;;4948943;28;20117;-76
2023/07/10 14:53:11;;;;;;;15.30;6.90;;;;;;;;;;4936242;29;20497;-77
2023/07/10 14:55:36;;;;;;;8.18;6.53;;;;;;;;;;4940006;29;20043;-77
2023/07/10 14:58:10;;;;;;;14.50;8.68;;;;;;;;;;4949451;28;20071;-79
2023/07/10 15:00:36;;;;;;;14.70;8.98;;;;;;;;;;4926916;29;20031;-76
2023/07/10 15:03:01;;;;;;;14.70;7.38;;;;;;;;;;4929042;29;20046;-78
2023/07/10 15:05:27;;;;;;;11.68;7.45;;;;;;;;;;4934123;28;20099;-77
2023/07/10 15:07:56;;;;;;;14.77;8.10;;;;;;;;;;4947793;28;20031;-75
2023/07/10 15:10:26;;;;;;;11.68;7.65;;;;;;;;;;4944573;29;20126;-76
2023/07/10 15:13:00;;;;;;;10.82;7.28;;;;;;;;;;4940052;29;20571;-75
2023/07/10 15:15:29;;;;;;;9.63;6.95;;;;;;;;;;4946583;29;20039;-76
2023/07/10 15:17:55;;;;;;;8.73;6.78;;;;;;;;;;4934526;29;20031;-77
2023/07/10 15:20:21;;;;;;;12.50;6.85;;;;;;;;;;4927556;29;20129;-76
2023/07/10 15:22:47;;;;;;;11.25;7.18;;;;;;;;;;4943919;29;20082;-76
2023/07/10 15:25:24;;;;;;;12.93;7.28;;;;;;;;;;4921850;29;20444;-77
2023/07/10 15:27:51;;;;;;;9.60;6.35;;;;;;;;;;4924193;29;20031;-79
2023/07/10 15:30:20;;;;;;;10.30;6.70;;;;;;;;;;4913701;29;20071;-76
2023/07/10 15:32:47;;;;;;;11.75;6.95;;;;;;;;;;4917066;29;20041;-76
2023/07/10 15:35:16;;;;;;;12.80;7.03;;;;;;;;;;4936366;29;20041;-76
2023/07/10 15:37:42;;;;;;;13.30;7.10;;;;;;;;;;4952804;29;20411;-77
2023/07/10 15:40:29;;;;;;;11.10;6.63;;;;;;;;;;4921039;29;20027;-76
2023/07/10 15:42:57;;;;;;;9.85;7.13;;;;;;;;;;4919253;29;20050;-77
2023/07/10 15:45:23;;;;;;;10.55;7.47;;;;;;;;;;4935224;29;20537;-77
2023/07/10 15:47:52;;;;;;;14.52;7.80;;;;;;;;;;4921635;29;20040;-77
2023/07/10 15:50:18;;;;;;;10.02;8.40;;;;;;;;;;4935718;29;20019;-77
2023/07/10 15:52:48;;;;;;;14.10;7.75;;;;;;;;;;4941448;29;20027;-76
2023/07/10 15:55:24;;;;;;;13.60;7.75;;;;;;;;;;4935322;29;20024;-75
2023/07/10 15:57:51;;;;;;;14.15;7.97;;;;;;;;;;4932102;29;20054;-77
2023/07/10 16:00:23;;;;;;;12.15;7.80;;;;;;;;;;4950824;29;20448;-76
2023/07/10 16:02:49;;;;;;;10.52;7.63;;;;;;;;;;4918108;29;20031;-75
2023/07/10 16:05:27;;;;;;;11.68;7.93;;;;;;;;;;4916485;29;20571;-78
2023/07/10 16:07:55;;;;;;;13.85;7.88;;;;;;;;;;4932389;29;20035;-77
2023/07/10 16:10:22;;;;;;;11.07;7.55;;;;;;;;;;4929413;29;20034;-75
2023/07/10 16:12:49;;;;;;;11.23;8.00;;;;;;;;;;4915664;29;20031;-77
2023/07/10 16:15:18;;;;;;;12.75;8.30;;;;;;;;;;4917043;29;20062;-77
2023/07/10 16:17:46;;;;;;;12.02;8.15;;;;;;;;;;4947380;28;20062;-76
2023/07/10 16:20:14;;;;;;;10.52;9.43;;;;;;;;;;4947371;29;20027;-76
2023/07/10 16:22:41;;;;;;;20.48;9.80;;;;;;;;;;4920938;29;20031;-77
2023/07/10 16:25:16;;;;;;;12.65;7.30;;;;;;;;;;4937244;29;20814;-77
2023/07/10 16:27:42;;;;;;;14.50;7.90;;;;;;;;;;4935973;28;20046;-77
2023/07/10 16:30:17;;;;;;;11.02;8.18;;;;;;;;;;4932972;29;20452;-77
2023/07/10 16:32:44;;;;;;;14.27;7.55;;;;;;;;;;4935921;29;20042;-76
2023/07/10 16:35:24;;;;;;;11.60;8.00;;;;;;;;;;4932941;29;20055;-76
2023/07/10 16:37:51;;;;;;;11.23;7.82;;;;;;;;;;4935658;29;20457;-77
2023/07/10 16:40:22;;;;;;;16.10;8.30;;;;;;;;;;4936829;29;20036;-76
2023/07/10 16:42:50;;;;;;;;;;;;;;;;;;4920830;29;20091;-76
2023/07/10 16:45:21;;;;;;;14.35;8.30;;;;;;;;;;4921757;29;19938;-77
2023/07/10 16:47:48;;;;;;;13.80;7.85;;;;;;;;;;4935624;29;20031;-76
2023/07/10 16:50:19;;;;;;;12.70;8.10;;;;;;;;;;4959824;29;20472;-76
2023/07/10 16:52:45;;;;;;;14.48;8.27;;;;;;;;;;4957095;29;20388;-75
2023/07/10 16:55:20;;;;;;;12.48;8.25;;;;;;;;;;4939228;29;20047;-75
2023/07/10 16:57:47;;;;;;;9.82;8.25;;;;;;;;;;4939119;29;20132;-76
2023/07/10 17:00:15;;;;;;;14.25;7.68;;;;;;;;;;4938624;29;20058;-77
2023/07/10 17:02:41;;;;;;;10.77;8.23;;;;;;;;;;4956389;29;20094;-78
2023/07/10 17:05:12;;;;;;;14.00;8.48;;;;;;;;;;4938087;29;20035;-77
2023/07/10 17:07:38;;;;;;;10.55;7.80;;;;;;;;;;4938168;29;20480;-78
2023/07/10 17:10:05;;;;;;;9.30;8.30;;;;;;;;;;4938785;29;20092;-79
2023/07/10 17:12:31;;;;;;;12.30;9.13;;;;;;;;;;4922234;29;20717;-79